createdAt,value
2023-02-14T00:00:10.643Z,34.67
2023-02-14T00:02:38.613Z,38.37
2023-02-14T00:05:07.068Z,34.93
2023-02-14T00:07:36.308Z,37.33
2023-02-14T00:10:04.239Z,36.40
2023-02-14T00:12:32.103Z,36.27
2023-02-14T00:15:17.638Z,35.77
2023-02-14T00:17:45.497Z,35.97
2023-02-14T00:20:13.386Z,36.57
2023-02-14T00:22:42.598Z,34.00
2023-02-14T00:25:10.404Z,41.30
2023-02-14T00:27:38.585Z,41.03
2023-02-14T00:30:08.108Z,36.00
2023-02-14T00:32:38.140Z,34.33
2023-02-14T00:35:06.672Z,38.13
2023-02-14T00:37:34.732Z,37.20
2023-02-14T00:40:04.711Z,35.30
2023-02-14T00:42:33.365Z,36.60
2023-02-14T00:45:01.361Z,35.93
2023-02-14T00:47:29.452Z,34.97
2023-02-14T00:50:02.590Z,34.13
2023-02-14T00:52:30.689Z,35.77
2023-02-14T00:54:59.300Z,34.53
2023-02-14T00:57:28.543Z,36.47
2023-02-14T00:59:56.342Z,36.47
2023-02-14T01:02:24.289Z,34.80
2023-02-14T01:04:52.587Z,34.97
2023-02-14T01:07:24.111Z,36.33
2023-02-14T01:09:52.067Z,38.57
2023-02-14T01:12:19.994Z,35.30
2023-02-14T01:14:49.185Z,37.63
2023-02-14T01:17:20.280Z,39.40
2023-02-14T01:19:48.705Z,34.63
2023-02-14T01:22:16.507Z,38.60
2023-02-14T01:24:45.112Z,38.13
2023-02-14T01:27:12.965Z,41.07
2023-02-14T01:29:40.817Z,35.83
2023-02-14T01:32:10.093Z,34.80
2023-02-14T01:34:37.986Z,39.50
2023-02-14T01:37:06.765Z,37.43
2023-02-14T01:39:35.850Z,38.53
2023-02-14T01:42:05.149Z,38.37
2023-02-14T01:45:00.967Z,37.67
2023-02-14T01:47:33.264Z,38.70
2023-02-14T01:50:08.471Z,40.80
2023-02-14T01:52:41.292Z,38.90
2023-02-14T01:55:15.066Z,40.40
2023-02-14T01:57:48.319Z,39.73
2023-02-14T02:00:36.123Z,36.93
2023-02-14T02:03:06.421Z,40.67
2023-02-14T02:05:34.673Z,39.27
2023-02-14T02:08:03.249Z,38.33
2023-02-14T02:10:31.155Z,39.13
2023-02-14T02:13:05.918Z,35.50
2023-02-14T02:15:42.632Z,36.27
2023-02-14T02:18:18.842Z,39.83
2023-02-14T02:21:16.334Z,38.00
2023-02-14T02:24:09.537Z,40.57
2023-02-14T02:27:03.861Z,41.93
2023-02-14T02:30:12.305Z,39.10
2023-02-14T02:33:07.945Z,36.63
2023-02-14T02:35:48.146Z,39.23
2023-02-14T02:38:30.394Z,38.57
2023-02-14T02:41:05.168Z,40.07
2023-02-14T02:43:44.746Z,37.80
2023-02-14T02:46:39.627Z,38.37
2023-02-14T02:49:14.988Z,41.93
2023-02-14T02:52:16.165Z,39.47
2023-02-14T02:54:49.659Z,39.80
2023-02-14T02:57:24.068Z,41.87
2023-02-14T02:59:56.172Z,40.80
2023-02-14T03:02:26.486Z,41.17
2023-02-14T03:04:56.917Z,41.63
2023-02-14T03:07:39.190Z,41.57
2023-02-14T03:10:14.371Z,46.17
2023-02-14T03:13:10.415Z,41.43
2023-02-14T03:15:48.653Z,43.67
2023-02-14T03:18:48.802Z,41.93
2023-02-14T03:21:29.610Z,42.77
2023-02-14T03:24:06.209Z,40.73
2023-02-14T03:26:39.193Z,42.10
2023-02-14T03:29:14.714Z,39.20
2023-02-14T03:31:51.940Z,41.47
2023-02-14T03:34:28.157Z,47.93
2023-02-14T03:36:59.822Z,44.07
2023-02-14T03:39:33.329Z,43.97
2023-02-14T03:42:06.363Z,44.30
2023-02-14T03:44:37.077Z,41.43
2023-02-14T03:47:09.040Z,38.73
2023-02-14T03:49:40.772Z,39.47
2023-02-14T03:52:11.134Z,43.23
2023-02-14T03:54:40.687Z,43.63
2023-02-14T03:57:16.169Z,41.67
2023-02-14T03:59:44.355Z,44.93
2023-02-14T04:02:15.387Z,41.83
2023-02-14T04:04:47.182Z,42.57
2023-02-14T04:07:17.435Z,38.37
2023-02-14T04:09:47.425Z,41.03
2023-02-14T04:12:18.178Z,39.93
2023-02-14T04:14:48.042Z,40.20
2023-02-14T04:17:33.320Z,41.57
2023-02-14T04:20:01.209Z,40.27
2023-02-14T04:22:29.059Z,42.90
2023-02-14T04:24:58.244Z,40.17
2023-02-14T04:27:26.061Z,39.60
2023-02-14T04:29:54.011Z,40.23
2023-02-14T04:32:23.446Z,42.17
2023-02-14T04:34:51.652Z,40.53
2023-02-14T04:37:21.046Z,38.83
2023-02-14T04:39:49.221Z,40.43
2023-02-14T04:42:18.797Z,41.73
2023-02-14T04:44:46.706Z,44.43
2023-02-14T04:47:14.501Z,41.77
2023-02-14T04:49:42.514Z,44.30
2023-02-14T04:52:10.385Z,40.57
2023-02-14T04:54:38.214Z,42.40
2023-02-14T04:57:06.106Z,42.53
2023-02-14T04:59:35.332Z,39.77
2023-02-14T05:02:03.318Z,42.37
2023-02-14T05:04:31.245Z,40.70
2023-02-14T05:07:00.852Z,41.43
2023-02-14T05:09:29.329Z,43.10
2023-02-14T05:11:57.261Z,43.43
2023-02-14T05:14:25.097Z,46.33
2023-02-14T05:16:54.323Z,39.73
2023-02-14T05:19:22.320Z,40.50
2023-02-14T05:21:50.211Z,41.00
2023-02-14T05:24:18.290Z,41.83
2023-02-14T05:26:46.235Z,41.50
2023-02-14T05:29:14.043Z,40.43
2023-02-14T05:31:41.999Z,40.53
2023-02-14T05:34:11.275Z,39.70
2023-02-14T05:36:39.438Z,41.87
2023-02-14T05:39:07.264Z,41.80
2023-02-14T05:41:35.147Z,46.47
2023-02-14T05:44:02.979Z,41.23
2023-02-14T05:46:30.858Z,41.40
2023-02-14T05:48:58.729Z,39.77
2023-02-14T05:51:28.137Z,40.23
2023-02-14T05:53:57.740Z,39.73
2023-02-14T05:56:25.612Z,42.60
2023-02-14T05:58:53.394Z,42.27
2023-02-14T06:01:21.299Z,41.90
2023-02-14T06:03:49.106Z,42.37
2023-02-14T06:06:16.969Z,43.43
2023-02-14T06:08:46.189Z,42.70
2023-02-14T06:11:14.316Z,43.40
2023-02-14T06:13:42.331Z,38.27
2023-02-14T06:16:10.328Z,42.73
2023-02-14T06:18:38.224Z,41.67
2023-02-14T06:21:06.420Z,40.63
2023-02-14T06:23:34.544Z,48.93
2023-02-14T06:26:03.787Z,56.77
2023-02-14T06:28:31.669Z,61.97
2023-02-14T06:30:59.903Z,63.27
2023-02-14T06:33:27.976Z,58.07
2023-02-14T06:35:55.936Z,56.73
2023-02-14T06:38:23.817Z,53.03
2023-02-14T06:40:51.652Z,49.63
2023-02-14T06:43:20.836Z,46.23
2023-02-14T06:45:48.660Z,60.50
2023-02-14T06:48:16.599Z,65.47
2023-02-14T06:50:44.400Z,57.23
2023-02-14T06:53:12.545Z,48.47
2023-02-14T06:55:42.371Z,46.43
2023-02-14T06:58:11.586Z,46.33
2023-02-14T07:00:40.773Z,45.27
2023-02-14T07:03:09.335Z,47.10
2023-02-14T07:05:38.157Z,43.57
2023-02-14T07:08:07.115Z,48.17
2023-02-14T07:10:35.040Z,42.70
2023-02-14T07:13:02.986Z,44.57
2023-02-14T07:15:31.204Z,45.80
2023-02-14T07:18:00.573Z,49.80
2023-02-14T07:20:28.449Z,45.53
2023-02-14T07:22:56.409Z,44.63
2023-02-14T07:25:24.254Z,47.37
2023-02-14T07:27:52.156Z,45.00
2023-02-14T07:30:20.193Z,44.67
2023-02-14T07:32:48.112Z,46.53
2023-02-14T07:35:17.396Z,45.63
2023-02-14T07:37:45.347Z,44.97
2023-02-14T07:40:15.245Z,42.80
2023-02-14T07:42:44.083Z,43.67
2023-02-14T07:45:21.871Z,45.13
2023-02-14T07:47:50.290Z,46.70
2023-02-14T07:50:20.235Z,44.10
2023-02-14T07:52:48.252Z,45.93
2023-02-14T07:55:16.273Z,46.93
2023-02-14T07:57:44.174Z,46.47
2023-02-14T08:00:14.340Z,46.10
2023-02-14T08:02:42.225Z,44.43
2023-02-14T08:05:10.492Z,43.50
2023-02-14T08:07:39.769Z,45.33
2023-02-14T08:10:08.738Z,41.97
2023-02-14T08:12:54.192Z,44.80
2023-02-14T08:15:39.933Z,45.97
2023-02-14T08:18:07.791Z,47.10
2023-02-14T08:20:35.632Z,42.97
2023-02-14T08:23:04.990Z,44.50
2023-02-14T08:25:32.893Z,43.23
2023-02-14T08:28:02.703Z,45.23
2023-02-14T08:30:30.815Z,41.90
2023-02-14T08:32:58.688Z,44.03
2023-02-14T08:35:26.577Z,44.63
2023-02-14T08:37:54.417Z,36.53
2023-02-14T08:40:24.654Z,43.53
2023-02-14T08:42:52.919Z,40.07
2023-02-14T08:45:21.706Z,41.20
2023-02-14T08:47:49.604Z,39.70
2023-02-14T08:50:19.750Z,38.97
2023-02-14T08:52:47.670Z,42.70
2023-02-14T08:55:15.500Z,37.70
2023-02-14T08:57:44.827Z,37.93
2023-02-14T09:00:13.547Z,39.47
2023-02-14T09:02:41.446Z,37.00
2023-02-14T09:05:10.613Z,30.80
2023-02-14T09:07:39.320Z,33.20
2023-02-14T09:10:08.659Z,31.03
2023-02-14T09:12:39.309Z,33.93
2023-02-14T09:15:10.188Z,34.90
2023-02-14T09:17:38.622Z,31.60
2023-02-14T09:20:07.648Z,29.53
2023-02-14T09:22:35.624Z,29.90
2023-02-14T09:25:03.498Z,31.07
2023-02-14T09:27:32.215Z,30.10
2023-02-14T09:30:00.034Z,29.13
2023-02-14T09:32:29.774Z,30.73
2023-02-14T09:35:15.476Z,25.63
2023-02-14T09:37:43.373Z,33.00
2023-02-14T09:40:14.575Z,28.37
2023-02-14T09:42:52.468Z,29.00
2023-02-14T09:45:22.739Z,29.00
2023-02-14T09:47:56.368Z,26.77
2023-02-14T09:50:28.670Z,25.30
2023-02-14T09:53:01.547Z,28.03
2023-02-14T09:55:39.739Z,26.37
2023-02-14T09:58:14.235Z,28.00
2023-02-14T10:00:47.686Z,26.07
2023-02-14T10:03:43.837Z,24.67
2023-02-14T10:06:23.720Z,24.93
2023-02-14T10:09:03.576Z,29.17
2023-02-14T10:11:31.479Z,29.37
2023-02-14T10:14:03.866Z,25.40
2023-02-14T10:16:38.526Z,25.27
2023-02-14T10:19:14.897Z,26.80
2023-02-14T10:21:49.585Z,24.73
2023-02-14T10:24:21.908Z,25.63
2023-02-14T10:26:51.403Z,24.47
2023-02-14T10:29:22.112Z,24.67
2023-02-14T10:31:55.559Z,26.13
2023-02-14T10:34:31.936Z,23.73
2023-02-14T10:37:17.364Z,26.00
2023-02-14T10:40:01.856Z,26.30
2023-02-14T10:42:40.525Z,26.97
2023-02-14T10:45:18.746Z,25.13
2023-02-14T10:47:52.846Z,24.93
2023-02-14T10:50:27.793Z,28.73
2023-02-14T10:53:04.703Z,27.43
2023-02-14T10:55:43.189Z,26.20
2023-02-14T10:58:15.467Z,25.40
2023-02-14T11:00:52.996Z,25.80
2023-02-14T11:03:21.438Z,27.93
2023-02-14T11:05:51.058Z,25.73
2023-02-14T11:08:25.848Z,23.87
2023-02-14T11:10:54.790Z,29.07
2023-02-14T11:13:37.313Z,27.20
2023-02-14T11:16:08.755Z,25.30
2023-02-14T11:18:39.482Z,25.50
2023-02-14T11:21:11.576Z,25.87
2023-02-14T11:23:42.597Z,24.43
2023-02-14T11:26:16.377Z,24.90
2023-02-14T11:28:53.416Z,27.97
2023-02-14T11:31:33.420Z,25.33
2023-02-14T11:34:05.042Z,27.53
2023-02-14T11:36:42.609Z,26.00
2023-02-14T11:39:24.313Z,28.87
2023-02-14T11:41:53.845Z,25.00
2023-02-14T11:44:24.594Z,27.43
2023-02-14T11:46:54.029Z,26.40
2023-02-14T11:49:29.570Z,25.73
2023-02-14T11:52:00.863Z,28.60
2023-02-14T11:54:35.922Z,25.70
2023-02-14T11:57:07.384Z,24.90
2023-02-14T11:59:41.553Z,24.07
2023-02-14T12:02:22.979Z,25.10
2023-02-14T12:04:55.196Z,26.90
2023-02-14T12:07:27.999Z,24.57
2023-02-14T12:10:20.078Z,26.30
2023-02-14T12:12:53.007Z,26.10
2023-02-14T12:15:36.768Z,26.63
2023-02-14T12:18:49.292Z,26.40
2023-02-14T12:21:28.635Z,26.23
2023-02-14T12:24:06.298Z,25.47
2023-02-14T12:26:38.668Z,27.00
2023-02-14T12:29:14.874Z,25.10
2023-02-14T12:31:49.085Z,25.77
2023-02-14T12:34:18.811Z,27.83
2023-02-14T12:37:13.864Z,25.03
2023-02-14T12:39:57.688Z,25.43
2023-02-14T12:42:38.757Z,27.83
2023-02-14T12:45:18.308Z,27.77
2023-02-14T12:47:58.667Z,25.47
2023-02-14T12:50:38.222Z,24.93
2023-02-14T12:53:30.102Z,25.90
2023-02-14T12:56:07.446Z,24.77
2023-02-14T12:58:45.980Z,25.07
2023-02-14T13:01:39.055Z,26.87
2023-02-14T13:04:29.670Z,26.17
2023-02-14T13:07:02.525Z,24.30
2023-02-14T13:09:37.809Z,25.53
2023-02-14T13:12:22.693Z,25.27
2023-02-14T13:15:00.290Z,26.03
2023-02-14T13:17:34.769Z,24.50
2023-02-14T13:20:18.911Z,27.60
2023-02-14T13:22:47.929Z,29.30
2023-02-14T13:25:30.737Z,25.67
2023-02-14T13:28:01.410Z,26.23
2023-02-14T13:30:32.727Z,26.07
2023-02-14T13:33:07.409Z,27.60
2023-02-14T13:35:36.117Z,26.93
2023-02-14T13:38:07.545Z,29.23
2023-02-14T13:40:37.586Z,28.07
2023-02-14T13:43:06.793Z,25.33
2023-02-14T13:46:05.023Z,27.03
2023-02-14T13:48:33.557Z,24.53
2023-02-14T13:51:03.480Z,26.93
2023-02-14T13:53:40.675Z,23.33
2023-02-14T13:56:34.881Z,27.23
2023-02-14T13:59:07.320Z,25.57
2023-02-14T14:01:40.512Z,25.70
2023-02-14T14:04:36.979Z,23.47
2023-02-14T14:07:22.043Z,24.03
2023-02-14T14:10:02.447Z,25.70
2023-02-14T14:12:39.476Z,23.13
2023-02-14T14:15:17.131Z,24.93
2023-02-14T14:17:47.516Z,24.57
2023-02-14T14:20:43.113Z,23.23
2023-02-14T14:23:34.166Z,24.60
2023-02-14T14:26:03.291Z,24.40
2023-02-14T14:28:33.208Z,23.37
2023-02-14T14:31:01.341Z,23.83
2023-02-14T14:33:31.653Z,24.90
2023-02-14T14:36:06.090Z,26.40
2023-02-14T14:38:46.395Z,24.13
2023-02-14T14:41:14.579Z,26.10
2023-02-14T14:43:42.971Z,23.50
2023-02-14T14:46:14.392Z,24.87
2023-02-14T14:48:46.345Z,25.23
2023-02-14T14:51:23.998Z,23.73
2023-02-14T14:53:54.070Z,24.87
2023-02-14T14:56:24.050Z,23.47
2023-02-14T14:58:52.718Z,27.47
2023-02-14T15:01:34.313Z,23.83
2023-02-14T15:04:13.398Z,24.83
2023-02-14T15:06:43.057Z,23.73
2023-02-14T15:09:16.269Z,23.47
2023-02-14T15:12:03.933Z,25.63
2023-02-14T15:14:36.491Z,25.20
2023-02-14T15:17:06.653Z,23.60
2023-02-14T15:19:38.584Z,25.53
2023-02-14T15:22:18.355Z,24.13
2023-02-14T15:24:46.769Z,26.97
2023-02-14T15:27:17.853Z,27.73
2023-02-14T15:29:56.077Z,27.07
2023-02-14T15:32:25.809Z,26.17
2023-02-14T15:34:55.084Z,25.80
2023-02-14T15:37:25.456Z,27.70
2023-02-14T15:39:56.313Z,26.47
2023-02-14T15:42:29.182Z,25.27
2023-02-14T15:45:16.969Z,27.90
2023-02-14T15:47:47.350Z,24.50
2023-02-14T15:50:17.251Z,26.77
2023-02-14T15:52:47.414Z,25.33
2023-02-14T15:55:19.513Z,25.87
2023-02-14T15:57:54.491Z,25.70
2023-02-14T16:00:24.481Z,30.60
2023-02-14T16:02:55.984Z,27.17
2023-02-14T16:05:27.084Z,26.43
2023-02-14T16:08:03.437Z,26.23
2023-02-14T16:10:33.117Z,27.13
2023-02-14T16:13:03.084Z,24.20
2023-02-14T16:15:32.728Z,27.23
2023-02-14T16:18:06.951Z,25.17
2023-02-14T16:20:46.787Z,26.53
2023-02-14T16:23:18.321Z,24.77
2023-02-14T16:25:46.893Z,25.27
2023-02-14T16:28:15.339Z,25.90
2023-02-14T16:30:45.019Z,27.00
2023-02-14T16:33:18.458Z,26.03
2023-02-14T16:35:46.871Z,27.73
2023-02-14T16:38:18.633Z,29.50
2023-02-14T16:40:48.576Z,24.83
2023-02-14T16:43:18.502Z,27.23
2023-02-14T16:45:47.186Z,26.83
2023-02-14T16:48:16.312Z,31.80
2023-02-14T16:50:45.765Z,33.20
2023-02-14T16:53:23.382Z,35.43
2023-02-14T16:55:53.119Z,35.73
2023-02-14T16:58:22.296Z,35.67
2023-02-14T17:00:50.359Z,35.23
2023-02-14T17:03:18.458Z,32.57
2023-02-14T17:05:47.398Z,30.93
2023-02-14T17:08:16.275Z,29.10
2023-02-14T17:10:48.373Z,32.03
2023-02-14T17:13:19.938Z,25.27
2023-02-14T17:15:48.377Z,31.93
2023-02-14T17:18:18.586Z,28.57
2023-02-14T17:20:46.769Z,27.57
2023-02-14T17:23:15.270Z,28.77
2023-02-14T17:25:45.956Z,26.03
2023-02-14T17:28:13.731Z,29.00
2023-02-14T17:30:41.988Z,26.53
2023-02-14T17:33:09.840Z,27.57
2023-02-14T17:35:38.786Z,30.40
2023-02-14T17:38:06.641Z,27.23
2023-02-14T17:40:35.066Z,31.70
2023-02-14T17:43:04.452Z,32.73
2023-02-14T17:45:32.320Z,26.53
2023-02-14T17:48:01.594Z,29.43
2023-02-14T17:50:29.631Z,30.93
2023-02-14T17:52:58.318Z,28.23
2023-02-14T17:55:26.184Z,32.60
2023-02-14T17:57:54.128Z,34.10
2023-02-14T18:00:24.361Z,31.63
2023-02-14T18:02:52.370Z,33.57
2023-02-14T18:05:20.195Z,32.47
2023-02-14T18:07:48.287Z,34.40
2023-02-14T18:10:16.083Z,35.20
2023-02-14T18:12:43.958Z,33.53
2023-02-14T18:15:11.791Z,35.57
2023-02-14T18:17:41.345Z,34.73
2023-02-14T18:20:10.068Z,35.67
2023-02-14T18:22:37.910Z,37.67
2023-02-14T18:25:07.468Z,35.20
2023-02-14T18:27:35.366Z,35.63
2023-02-14T18:30:03.265Z,37.83
2023-02-14T18:32:31.175Z,35.90
2023-02-14T18:35:00.364Z,36.33
2023-02-14T18:37:28.277Z,35.53
2023-02-14T18:39:56.084Z,41.23
2023-02-14T18:42:23.908Z,35.40
2023-02-14T18:44:51.752Z,39.10
2023-02-14T18:47:20.996Z,30.77
2023-02-14T18:49:48.816Z,41.20
2023-02-14T18:52:18.093Z,38.87
2023-02-14T18:54:45.916Z,38.93
2023-02-14T18:57:13.751Z,41.90
2023-02-14T18:59:41.746Z,40.20
2023-02-14T19:02:10.122Z,40.60
2023-02-14T19:04:37.937Z,41.00
2023-02-14T19:07:06.022Z,42.67
2023-02-14T19:09:39.393Z,43.37
2023-02-14T19:12:07.810Z,43.17
2023-02-14T19:14:36.027Z,41.37
2023-02-14T19:17:06.013Z,39.43
2023-02-14T19:19:34.578Z,41.67
2023-02-14T19:22:02.459Z,42.83
2023-02-14T19:24:30.401Z,43.07
2023-02-14T19:26:59.664Z,42.73
2023-02-14T19:29:27.751Z,43.73
2023-02-14T19:31:56.159Z,46.53
2023-02-14T19:34:28.944Z,45.33
2023-02-14T19:36:59.760Z,45.40
2023-02-14T19:39:30.348Z,41.23
2023-02-14T19:42:00.956Z,40.17
2023-02-14T19:44:30.921Z,39.67
2023-02-14T19:47:00.058Z,48.50
2023-02-14T19:49:29.144Z,41.23
2023-02-14T19:51:57.847Z,44.23
2023-02-14T19:54:25.800Z,42.57
2023-02-14T19:56:55.972Z,46.03
2023-02-14T19:59:25.310Z,42.67
2023-02-14T20:01:54.512Z,44.27
2023-02-14T20:04:23.834Z,47.27
2023-02-14T20:06:52.522Z,43.93
2023-02-14T20:09:21.744Z,49.60
2023-02-14T20:11:51.182Z,44.80
2023-02-14T20:14:20.488Z,47.73
2023-02-14T20:16:50.111Z,45.97
2023-02-14T20:19:20.375Z,46.50
2023-02-14T20:21:50.432Z,44.40
2023-02-14T20:24:22.516Z,48.83
2023-02-14T20:26:51.782Z,47.37
2023-02-14T20:29:21.013Z,46.13
2023-02-14T20:31:52.311Z,45.93
2023-02-14T20:34:20.857Z,49.83
2023-02-14T20:36:52.950Z,50.20
2023-02-14T20:39:22.233Z,46.33
2023-02-14T20:41:51.172Z,47.77
2023-02-14T20:44:21.768Z,45.53
2023-02-14T20:46:52.525Z,48.87
2023-02-14T20:49:21.416Z,49.60
2023-02-14T20:51:50.624Z,49.33
2023-02-14T20:54:18.991Z,45.10
2023-02-14T20:56:47.028Z,45.10
2023-02-14T20:59:15.439Z,48.43
2023-02-14T21:01:43.468Z,47.87
2023-02-14T21:04:13.999Z,45.20
2023-02-14T21:06:42.044Z,47.87
2023-02-14T21:09:10.039Z,47.47
2023-02-14T21:11:37.946Z,49.23
2023-02-14T21:14:05.969Z,48.90
2023-02-14T21:16:33.779Z,54.00
2023-02-14T21:19:01.714Z,54.87
2023-02-14T21:21:34.647Z,57.63
2023-02-14T21:24:04.409Z,55.83
2023-02-14T21:26:32.260Z,55.57
2023-02-14T21:29:00.109Z,55.57
2023-02-14T21:31:28.217Z,59.73
2023-02-14T21:33:58.031Z,60.77
2023-02-14T21:36:28.606Z,57.37
2023-02-14T21:38:59.319Z,53.50
2023-02-14T21:41:30.727Z,57.20
2023-02-14T21:44:00.745Z,61.00
2023-02-14T21:46:30.828Z,56.30
2023-02-14T21:49:17.746Z,58.40
2023-02-14T21:51:46.127Z,58.67
2023-02-14T21:54:16.264Z,55.73
2023-02-14T21:56:45.282Z,54.63
2023-02-14T21:59:13.461Z,58.23
2023-02-14T22:01:43.041Z,58.17
2023-02-14T22:04:12.649Z,61.80
2023-02-14T22:06:42.469Z,57.70
2023-02-14T22:09:17.340Z,60.80
2023-02-14T22:11:47.399Z,58.57
2023-02-14T22:14:15.778Z,62.13
2023-02-14T22:16:43.650Z,65.23
2023-02-14T22:19:14.714Z,63.17
2023-02-14T22:21:44.651Z,61.93
2023-02-14T22:24:13.498Z,60.57
2023-02-14T22:26:42.946Z,60.90
2023-02-14T22:29:13.024Z,59.60
2023-02-14T22:31:42.611Z,55.20
2023-02-14T22:34:12.635Z,63.00
2023-02-14T22:36:40.711Z,57.30
2023-02-14T22:39:09.310Z,57.47
2023-02-14T22:41:37.837Z,61.17
2023-02-14T22:44:07.406Z,55.80
2023-02-14T22:46:37.674Z,57.67
2023-02-14T22:49:07.230Z,59.93
2023-02-14T22:51:37.420Z,56.77
2023-02-14T22:54:07.454Z,58.83
2023-02-14T22:56:38.681Z,60.80
2023-02-14T22:59:09.836Z,60.23
2023-02-14T23:01:37.866Z,62.50
2023-02-14T23:04:06.512Z,60.63
2023-02-14T23:06:35.966Z,59.00
2023-02-14T23:09:04.645Z,56.20
2023-02-14T23:11:34.811Z,57.73
2023-02-14T23:14:20.818Z,58.13
2023-02-14T23:17:07.708Z,57.27
2023-02-14T23:19:54.701Z,58.80
2023-02-14T23:22:24.213Z,58.73
2023-02-14T23:24:53.684Z,52.07
2023-02-14T23:27:23.265Z,54.47
2023-02-14T23:29:51.223Z,56.10
2023-02-14T23:32:20.370Z,57.13
2023-02-14T23:34:48.609Z,60.90
2023-02-14T23:37:16.499Z,57.27
2023-02-14T23:39:44.337Z,56.63
2023-02-14T23:42:14.550Z,61.77
2023-02-14T23:44:43.967Z,62.80
2023-02-14T23:47:12.897Z,58.20
2023-02-14T23:49:42.873Z,59.97
2023-02-14T23:52:13.135Z,56.20
2023-02-14T23:54:41.005Z,54.63
2023-02-14T23:57:09.368Z,54.47
2023-02-14T23:59:37.233Z,55.03
